Time;durP1;ratioP1;P1;durP2;ratioP2;P2;SDS_P1;SDS_P2;PMS_P1;PMS_P2;Temp;Humidity;BMP_temperature;BMP_pressure;BME280_temperature;BME280_humidity;BME280_pressure;Samples;Min_cycle;Max_cycle;Signal;HPM_P1;HPM_P2
2021/12/04 00:01:49;;;;;;;2.37;0.90;;;;;;;-0.01;82.84;94340.97;5002868;28;20168;-78
2021/12/04 00:04:20;;;;;;;1.97;1.30;;;;;;;-0.04;83.70;94328.44;5003320;28;20227;-78
2021/12/04 00:06:46;;;;;;;1.20;1.03;;;;;;;-0.06;83.38;94324.38;5004000;28;20168;-79
2021/12/04 00:09:12;;;;;;;3.07;1.00;;;;;;;-0.10;83.65;94318.66;5003646;28;20187;-78
2021/12/04 00:11:40;;;;;;;1.53;1.13;;;;;;;-0.14;83.89;94321.56;5002581;28;20183;-78
2021/12/04 00:14:06;;;;;;;1.93;1.40;;;;;;;-0.12;83.98;94317.97;5003275;28;20191;-78
2021/12/04 00:16:31;;;;;;;2.00;1.20;;;;;;;-0.22;84.27;94309.38;5003770;28;20237;-77
2021/12/04 00:18:56;;;;;;;2.20;1.60;;;;;;;-0.33;83.75;94299.97;5002295;28;20183;-78
2021/12/04 00:21:22;;;;;;;1.50;1.10;;;;;;;-0.33;84.02;94299.97;5000653;28;20180;-77
2021/12/04 00:23:47;;;;;;;2.77;1.40;;;;;;;-0.37;83.83;94293.44;5001643;28;20250;-75
2021/12/04 00:26:12;;;;;;;1.97;1.30;;;;;;;-0.33;83.61;94284.66;5002536;28;20180;-79
2021/12/04 00:28:38;;;;;;;2.37;1.47;;;;;;;-0.41;84.24;94294.63;5002445;28;20191;-78
2021/12/04 00:31:07;;;;;;;2.97;1.70;;;;;;;-0.47;84.19;94292.50;4986257;28;20259;-79
2021/12/04 00:33:35;;;;;;;2.17;1.50;;;;;;;-0.40;84.58;94293.69;5002415;28;20226;-78
2021/12/04 00:36:04;;;;;;;2.73;1.97;;;;;;;-0.38;84.12;94284.19;5003043;28;20279;-78
2021/12/04 00:49:26;;;;;;;2.17;1.90;;;;;;;-0.48;85.55;94262.81;5001563;28;20214;-79
2021/12/04 00:51:54;;;;;;;2.40;2.13;;;;;;;-0.45;85.26;94251.56;5001434;28;20179;-77
2021/12/04 00:54:20;;;;;;;3.57;2.30;;;;;;;-0.46;84.42;94248.22;4986457;28;20229;-77
2021/12/04 00:56:46;;;;;;;5.97;2.97;;;;;;;-0.47;84.69;94248.34;5003128;28;20199;-77
2021/12/04 00:59:12;;;;;;;4.37;3.40;;;;;;;-0.55;85.67;94241.25;5002183;28;20187;-78
2021/12/04 01:01:39;;;;;;;4.53;3.30;;;;;;;-0.44;85.28;94243.00;5001794;28;20195;-79
2021/12/04 01:04:08;;;;;;;3.73;3.00;;;;;;;-0.46;85.99;94245.66;5004339;28;20226;-77
2021/12/04 01:06:33;;;;;;;4.20;3.40;;;;;;;-0.47;86.59;94245.78;5012552;28;20590;-77
2021/12/04 01:08:58;;;;;;;5.87;3.93;;;;;;;-0.53;87.07;94241.97;5011739;28;20178;-79
2021/12/04 01:11:23;;;;;;;4.67;4.17;;;;;;;-0.46;88.05;94227.81;5006009;28;20683;-79
2021/12/04 01:13:49;;;;;;;4.23;3.80;;;;;;;-0.52;88.29;94224.94;5006493;28;20232;-79
2021/12/04 01:16:14;;;;;;;6.77;4.00;;;;;;;-0.55;89.29;94225.94;5005436;28;20247;-79
2021/12/04 01:18:40;;;;;;;4.43;3.90;;;;;;;-0.53;89.49;94221.56;5005525;28;20182;-78
2021/12/04 01:21:05;;;;;;;5.80;4.30;;;;;;;-0.60;90.15;94217.84;5006694;28;20185;-78
2021/12/04 01:23:31;;;;;;;6.87;4.57;;;;;;;-0.62;90.68;94219.66;5004581;28;20206;-78
2021/12/04 01:25:56;;;;;;;7.80;4.93;;;;;;;-0.59;90.90;94210.06;5005260;28;20175;-79
2021/12/04 01:28:21;;;;;;;7.63;4.77;;;;;;;-0.59;91.26;94216.91;5004845;28;20612;-79
2021/12/04 01:30:47;;;;;;;5.43;4.57;;;;;;;-0.68;91.85;94204.84;5005025;28;20187;-77
2021/12/04 01:33:12;;;;;;;6.97;4.70;;;;;;;-0.68;91.94;94197.19;5002325;28;20203;-77
2021/12/04 01:35:37;;;;;;;9.53;5.23;;;;;;;-0.73;92.74;94199.25;5002638;28;20210;-78
2021/12/04 01:38:03;;;;;;;6.87;5.53;;;;;;;-0.72;93.25;94195.78;5002427;28;20182;-78
2021/12/04 01:40:28;;;;;;;6.80;5.00;;;;;;;-0.70;93.39;94193.94;5002729;28;20191;-77
2021/12/04 01:42:53;;;;;;;7.23;4.93;;;;;;;-0.77;94.04;94185.13;5001883;28;20238;-78
2021/12/04 01:45:19;;;;;;;7.53;5.97;;;;;;;-0.77;94.18;94190.22;5001836;28;20219;-77
2021/12/04 01:47:44;;;;;;;6.90;5.50;;;;;;;-0.76;94.22;94181.66;5002685;28;20198;-80
2021/12/04 01:50:10;;;;;;;7.67;5.33;;;;;;;-0.66;94.34;94167.28;5002971;28;20180;-80
2021/12/04 01:52:35;;;;;;;6.60;5.10;;;;;;;-0.69;94.83;94164.97;5006961;28;20238;-80
2021/12/04 01:55:01;;;;;;;9.80;6.10;;;;;;;-0.67;94.70;94158.03;5007234;28;20651;-79
2021/12/04 01:57:26;;;;;;;7.17;5.70;;;;;;;-0.67;94.82;94158.84;4990924;28;20628;-79
2021/12/04 01:59:52;;;;;;;9.43;6.17;;;;;;;-0.69;95.25;94149.69;5006744;28;20183;-79
2021/12/04 02:02:18;;;;;;;8.53;5.70;;;;;;;-0.66;95.41;94152.81;4990187;28;20222;-78
2021/12/04 02:04:43;;;;;;;10.40;6.40;;;;;;;-0.60;95.61;94142.16;5006471;28;20573;-79
2021/12/04 02:07:10;;;;;;;7.10;6.33;;;;;;;-0.62;95.60;94148.28;4990573;28;20670;-80
2021/12/04 02:09:36;;;;;;;10.07;6.20;;;;;;;-0.60;95.62;94134.50;4990526;28;20183;-79
2021/12/04 02:12:05;;;;;;;10.87;7.13;;;;;;;-0.74;96.84;94126.25;4989881;28;20182;-80
2021/12/04 02:14:31;;;;;;;9.57;7.27;;;;;;;-0.58;96.59;94117.34;5006268;28;20204;-80
2021/12/04 02:16:56;;;;;;;10.60;6.43;;;;;;;-0.60;96.89;94113.31;4989692;28;20208;-79
2021/12/04 02:19:22;;;;;;;10.20;7.23;;;;;;;-0.63;96.81;94113.50;4989391;28;20210;-77
2021/12/04 02:21:47;;;;;;;9.03;7.03;;;;;;;-0.61;97.04;94109.94;5005334;28;20186;-77
2021/12/04 02:24:12;;;;;;;9.07;7.20;;;;;;;-0.62;97.22;94107.47;5020700;28;20246;-77
2021/12/04 02:26:38;;;;;;;10.20;7.00;;;;;;;-0.59;97.75;94099.63;4988135;28;20171;-78
2021/12/04 02:29:03;;;;;;;10.73;7.97;;;;;;;-0.62;98.05;94092.19;4988888;28;20258;-79
2021/12/04 02:31:28;;;;;;;10.40;7.47;;;;;;;-0.57;97.96;94090.13;5004474;28;20190;-79
2021/12/04 02:33:54;;;;;;;10.47;7.50;;;;;;;-0.50;98.07;94095.56;5005199;28;20218;-77
2021/12/04 02:36:19;;;;;;;11.73;8.13;;;;;;;-0.61;98.45;94083.63;4988338;28;20219;-78
2021/12/04 02:38:49;;;;;;;9.80;8.07;;;;;;;-0.49;97.90;94086.97;5004847;28;20179;-78
2021/12/04 02:41:15;;;;;;;12.07;8.03;;;;;;;-0.54;98.15;94083.97;5002659;28;20191;-79
2021/12/04 02:43:40;;;;;;;9.07;7.70;;;;;;;-0.55;98.20;94082.34;5004304;28;20195;-79
2021/12/04 02:46:06;;;;;;;11.50;7.90;;;;;;;-0.53;98.70;94077.94;4987250;28;20175;-79
2021/12/04 02:48:31;;;;;;;12.60;7.80;;;;;;;-0.57;98.70;94065.41;5003768;28;20217;-79
2021/12/04 02:50:57;;;;;;;12.57;8.10;;;;;;;-0.53;98.81;94060.91;4986224;28;20183;-78
2021/12/04 02:53:22;;;;;;;11.97;7.83;;;;;;;-0.52;99.16;94061.72;5003043;28;20203;-79
2021/12/04 02:55:48;;;;;;;11.87;8.17;;;;;;;-0.53;99.09;94054.97;5003399;28;20214;-78
2021/12/04 02:58:15;;;;;;;10.97;7.70;;;;;;;-0.45;99.42;94055.22;5003077;28;20181;-79
2021/12/04 03:00:47;;;;;;;11.70;7.97;;;;;;;-0.39;99.17;94045.34;5003038;28;20258;-79
2021/12/04 03:03:12;;;;;;;9.33;6.93;;;;;;;-0.34;99.08;94038.16;4986442;28;20202;-79
2021/12/04 03:05:38;;;;;;;9.13;7.30;;;;;;;-0.39;99.28;94039.44;5002230;28;20188;-79
2021/12/04 03:08:06;;;;;;;10.77;7.27;;;;;;;-0.40;99.25;94030.16;4986015;28;20202;-78
2021/12/04 03:10:31;;;;;;;10.17;7.17;;;;;;;-0.33;99.61;94021.94;5001519;28;20176;-78
2021/12/04 03:12:57;;;;;;;9.23;7.27;;;;;;;-0.40;99.62;94015.69;5001063;28;20679;-78
2021/12/04 03:15:22;;;;;;;8.10;6.67;;;;;;;-0.39;99.94;94012.19;4984443;28;20206;-80
2021/12/04 03:17:48;;;;;;;9.70;7.30;;;;;;;-0.37;99.81;94005.22;5001149;28;20188;-79
2021/12/04 03:20:13;;;;;;;10.17;7.90;;;;;;;-0.34;99.94;94006.75;5000349;28;20686;-80
2021/12/04 03:22:43;;;;;;;8.80;7.43;;;;;;;-0.36;100.00;93996.63;5000115;28;20187;-80
2021/12/04 03:25:09;;;;;;;10.60;7.60;;;;;;;-0.37;99.83;93995.03;5000634;28;20380;-79
2021/12/04 03:27:34;;;;;;;9.00;6.97;;;;;;;-0.31;100.00;93996.28;5000440;28;20251;-78
2021/12/04 03:30:04;;;;;;;9.90;7.50;;;;;;;-0.35;100.00;93992.38;5000446;28;20179;-78
2021/12/04 03:43:10;;;;;;;11.67;8.83;;;;;;;-0.35;100.00;93957.47;4999112;28;20228;-77
2021/12/04 03:45:37;;;;;;;10.80;7.83;;;;;;;-0.43;100.00;93957.28;4998561;28;20353;-79
2021/12/04 03:48:08;;;;;;;9.97;7.40;;;;;;;-0.37;100.00;93950.84;4999013;28;20195;-79
2021/12/04 03:50:35;;;;;;;12.37;7.97;;;;;;;-0.31;100.00;93946.09;4998098;28;20423;-79
2021/12/04 03:53:00;;;;;;;10.43;7.70;;;;;;;-0.34;100.00;93948.09;4997663;28;20550;-79
2021/12/04 03:55:25;;;;;;;10.77;8.33;;;;;;;-0.37;100.00;93938.91;4998055;28;20189;-79
2021/12/04 03:57:51;;;;;;;10.83;8.07;;;;;;;-0.38;100.00;93931.38;4981829;28;20214;-79
2021/12/04 04:00:18;;;;;;;9.93;7.20;;;;;;;-0.32;100.00;93928.34;4997706;28;20268;-80
2021/12/04 04:02:44;;;;;;;11.73;8.30;;;;;;;-0.29;100.00;93928.91;4997501;28;20206;-80
2021/12/04 04:05:09;;;;;;;11.30;7.67;;;;;;;-0.25;100.00;93924.41;4998594;28;20555;-79
2021/12/04 04:07:34;;;;;;;11.83;7.50;;;;;;;-0.29;100.00;93926.38;4981826;28;20188;-79
2021/12/04 04:10:00;;;;;;;9.90;7.70;;;;;;;-0.29;100.00;93917.91;4981663;28;20279;-80
2021/12/04 04:12:25;;;;;;;9.50;7.80;;;;;;;-0.26;100.00;93914.31;4997721;28;20183;-79
2021/12/04 04:14:50;;;;;;;8.90;7.23;;;;;;;-0.25;100.00;93904.00;5014893;28;20186;-79
2021/12/04 04:17:16;;;;;;;10.90;7.40;;;;;;;-0.23;100.00;93907.22;4999546;28;20234;-79
2021/12/04 04:19:41;;;;;;;9.70;7.37;;;;;;;-0.13;100.00;93905.53;4993567;28;20207;-81
2021/12/04 04:22:07;;;;;;;10.50;7.67;;;;;;;-0.23;100.00;93903.88;5007780;28;20529;-81
2021/12/04 04:24:33;;;;;;;10.83;7.43;;;;;;;-0.20;100.00;93895.94;5008125;28;20204;-81
2021/12/04 04:26:59;;;;;;;9.00;7.87;;;;;;;-0.26;100.00;93886.25;5008561;28;20527;-79
2021/12/04 04:29:25;;;;;;;11.43;7.77;;;;;;;-0.24;100.00;93882.66;4992373;28;20190;-79
2021/12/04 04:31:53;;;;;;;11.30;7.80;;;;;;;-0.18;100.00;93886.44;4991040;28;20186;-80
2021/12/04 04:34:30;;;;;;;10.83;7.70;;;;;;;-0.16;100.00;93877.72;5007918;28;20202;-80
2021/12/04 04:37:27;;;;;;;10.30;7.40;;;;;;;-0.15;100.00;93876.00;5007948;28;20205;-80
2021/12/04 04:40:26;;;;;;;10.00;7.67;;;;;;;-0.17;100.00;93875.31;4992309;28;20620;-79
2021/12/04 05:02:17;;;;;;;8.97;6.63;;;;;;;-0.08;100.00;93844.75;5004598;28;20169;-78
2021/12/04 05:15:19;;;;;;;7.87;6.37;;;;;;;0.14;100.00;93831.03;5004298;28;20184;-79
2021/12/04 05:20:20;;;;;;;8.53;6.23;;;;;;;0.07;100.00;93829.91;5003401;28;20179;-79
2021/12/04 05:22:48;;;;;;;8.40;5.40;;;;;;;0.14;100.00;93831.03;4987100;28;20179;-80
2021/12/04 05:25:13;;;;;;;8.83;6.30;;;;;;;0.10;100.00;93823.75;5003114;28;20179;-80
2021/12/04 05:27:39;;;;;;;6.40;5.43;;;;;;;0.13;100.00;93824.31;5001977;28;20240;-79
2021/12/04 05:30:05;;;;;;;8.13;6.13;;;;;;;0.10;100.00;93829.69;4985554;28;20186;-80
2021/12/04 05:32:30;;;;;;;7.77;5.67;;;;;;;0.14;100.00;93823.38;5000664;28;20187;-79
2021/12/04 05:34:56;;;;;;;7.90;5.83;;;;;;;0.14;100.00;93822.56;5001603;28;20584;-78
2021/12/04 05:37:21;;;;;;;6.67;5.60;;;;;;;0.23;100.00;93814.94;5001556;28;20207;-79
2021/12/04 05:39:46;;;;;;;7.17;5.50;;;;;;;0.17;100.00;93814.66;5001155;28;20189;-80
2021/12/04 05:42:12;;;;;;;9.00;5.60;;;;;;;0.15;100.00;93819.88;4999489;28;20188;-78
2021/12/04 05:44:38;;;;;;;8.07;5.17;;;;;;;0.16;100.00;93824.03;4984541;28;20207;-80
2021/12/04 05:47:42;;;;;;;7.37;5.77;;;;;;;0.23;100.00;93814.94;4984414;28;20183;-80
2021/12/04 05:50:18;;;;;;;6.47;5.13;;;;;;;0.21;100.00;93808.38;4998795;28;20188;-81
2021/12/04 05:55:17;;;;;;;7.07;5.10;;;;;;;0.26;100.00;93803.66;5000338;28;20180;-78
2021/12/04 05:57:43;;;;;;;5.43;4.40;;;;;;;0.27;100.00;93803.56;5001418;28;20209;-78
2021/12/04 06:00:13;;;;;;;6.60;4.30;;;;;;;0.27;100.00;93790.78;5000284;28;20262;-77
2021/12/04 06:02:38;;;;;;;6.53;5.27;;;;;;;0.30;100.00;93792.28;5000127;28;20191;-78
2021/12/04 06:05:04;;;;;;;5.07;4.27;;;;;;;0.31;100.00;93800.75;4983803;28;20230;-80
2021/12/04 06:07:30;;;;;;;5.77;4.60;;;;;;;0.28;100.00;93794.16;5016086;28;20267;-80
2021/12/04 06:09:55;;;;;;;5.87;4.30;;;;;;;0.35;100.00;93795.22;5000909;28;20722;-80
2021/12/04 06:12:21;;;;;;;6.67;4.37;;;;;;;0.30;100.00;93789.72;4997764;28;20179;-78
2021/12/04 06:14:48;;;;;;;5.10;4.50;;;;;;;0.37;100.00;93785.72;5000045;28;20213;-79
2021/12/04 06:17:14;;;;;;;5.90;4.30;;;;;;;0.39;100.00;93783.03;4998688;28;20210;-80
2021/12/04 06:22:41;;;;;;;4.97;4.43;;;;;;;0.47;100.00;93775.53;4997866;28;20191;-78
2021/12/04 06:25:19;;;;;;;5.43;4.20;;;;;;;0.48;100.00;93787.38;4999421;28;20188;-78
2021/12/04 06:27:44;;;;;;;4.70;3.90;;;;;;;0.44;100.00;93791.94;5000726;28;20187;-79
2021/12/04 06:30:13;;;;;;;5.00;3.93;;;;;;;0.46;100.00;93786.69;4981392;28;20184;-78
2021/12/04 06:32:38;;;;;;;3.93;3.50;;;;;;;0.56;100.00;93793.44;4997312;28;20187;-80
2021/12/04 06:35:06;;;;;;;3.67;2.87;;;;;;;0.66;100.00;93793.47;4993265;28;20561;-79
2021/12/04 06:37:31;;;;;;;3.67;2.83;;;;;;;0.69;100.00;93792.38;4979372;28;20204;-79
2021/12/04 06:39:58;;;;;;;4.47;3.40;;;;;;;0.68;100.00;93791.56;4999980;28;20202;-79
2021/12/04 06:42:23;;;;;;;4.23;3.47;;;;;;;0.68;100.00;93789.03;5001305;28;20596;-78
2021/12/04 06:44:51;;;;;;;5.57;3.70;;;;;;;0.69;100.00;93795.75;5001591;28;20223;-80
2021/12/04 06:47:17;;;;;;;4.60;3.43;;;;;;;0.68;100.00;93789.03;4983315;28;20172;-79
2021/12/04 06:49:43;;;;;;;3.67;3.30;;;;;;;0.74;100.00;93793.63;4998845;28;20234;-79
2021/12/04 06:52:15;;;;;;;3.93;3.10;;;;;;;0.79;100.00;93790.66;4997464;28;20180;-80
2021/12/04 06:54:48;;;;;;;4.23;3.40;;;;;;;0.77;100.00;93789.97;4998014;28;20234;-79
2021/12/04 06:57:13;;;;;;;5.43;3.07;;;;;;;0.74;100.00;93788.50;4998438;28;20199;-79
2021/12/04 06:59:40;;;;;;;3.07;2.63;;;;;;;0.74;100.00;93787.69;4998805;28;20532;-81
2021/12/04 07:02:06;;;;;;;4.30;3.60;;;;;;;0.70;100.00;93788.88;4997396;28;20184;-80
2021/12/04 07:04:40;;;;;;;3.87;3.40;;;;;;;0.81;100.00;93781.13;4998858;28;20646;-80
2021/12/04 07:07:06;;;;;;;4.27;3.60;;;;;;;0.74;100.00;93778.28;4999053;28;20184;-79
2021/12/04 07:09:32;;;;;;;3.97;3.10;;;;;;;0.80;100.00;93782.88;4999543;28;20207;-80
2021/12/04 07:11:59;;;;;;;3.90;3.50;;;;;;;0.82;100.00;93783.56;4999116;28;20179;-80
2021/12/04 07:14:25;;;;;;;3.93;3.53;;;;;;;0.79;100.00;93791.47;5001454;28;20196;-79
2021/12/04 07:16:51;;;;;;;3.60;3.17;;;;;;;0.84;100.00;93786.78;5001253;28;20295;-79
2021/12/04 07:19:16;;;;;;;3.57;3.23;;;;;;;0.87;100.00;93790.81;5001966;28;20707;-79
2021/12/04 07:21:41;;;;;;;4.00;3.07;;;;;;;0.84;100.00;93789.34;4999262;28;20266;-78
2021/12/04 07:24:07;;;;;;;4.73;3.80;;;;;;;0.79;100.00;93781.25;4999408;28;20253;-80
2021/12/04 07:26:32;;;;;;;3.60;3.13;;;;;;;0.89;100.00;93772.81;5018245;28;20184;-81
2021/12/04 07:28:57;;;;;;;4.40;3.83;;;;;;;0.92;100.00;93775.09;5018329;28;20160;-81
2021/12/04 07:31:22;;;;;;;4.63;3.77;;;;;;;1.02;100.00;93788.69;5011930;28;20184;-82
2021/12/04 07:33:50;;;;;;;3.73;3.40;;;;;;;1.02;100.00;93793.81;5009704;28;20211;-82
2021/12/04 07:36:15;;;;;;;4.03;3.63;;;;;;;1.01;100.00;93784.53;5009132;28;20227;-81
2021/12/04 07:38:41;;;;;;;3.50;3.20;;;;;;;1.08;100.00;93783.06;5008991;28;20168;-80
2021/12/04 07:41:08;;;;;;;3.53;2.90;;;;;;;1.10;100.00;93778.59;5007662;28;20215;-80
2021/12/04 07:43:33;;;;;;;4.30;3.53;;;;;;;1.17;100.00;93779.69;5005929;28;20200;-79
2021/12/04 07:45:58;;;;;;;3.47;3.17;;;;;;;1.22;100.00;93782.63;5007066;28;20186;-79
2021/12/04 07:48:23;;;;;;;5.60;3.07;;;;;;;1.16;100.00;93782.38;5004285;28;20180;-80
2021/12/04 07:50:49;;;;;;;4.67;3.33;;;;;;;1.22;100.00;93774.97;5002916;28;20172;-79
2021/12/04 07:53:14;;;;;;;2.97;2.67;;;;;;;1.23;100.00;93783.44;5000785;28;20196;-82
2021/12/04 07:55:39;;;;;;;3.90;3.50;;;;;;;1.24;100.00;93775.66;4998853;28;20219;-81
2021/12/04 07:58:05;;;;;;;3.73;3.43;;;;;;;1.24;100.00;93788.44;4996066;28;20191;-79
2021/12/04 08:00:30;;;;;;;4.00;3.60;;;;;;;1.28;100.00;93782.09;4998412;28;20826;-82
2021/12/04 08:02:56;;;;;;;3.37;3.07;;;;;;;1.24;100.00;93780.78;4982044;28;20207;-82
2021/12/04 08:05:21;;;;;;;3.50;3.20;;;;;;;1.33;100.00;93776.59;4998276;28;20256;-82
2021/12/04 08:07:47;;;;;;;4.07;3.67;;;;;;;1.31;100.00;93771.59;4998134;28;20266;-80
2021/12/04 08:10:15;;;;;;;4.60;3.97;;;;;;;1.39;100.00;93776.03;4997676;28;20258;-83
2021/12/04 08:12:41;;;;;;;3.90;3.53;;;;;;;1.42;100.00;93768.91;4996170;28;20271;-82
2021/12/04 08:15:08;;;;;;;4.83;3.80;;;;;;;1.50;100.00;93769.97;4996360;28;20219;-83
2021/12/04 08:17:33;;;;;;;3.83;3.43;;;;;;;1.48;100.00;93771.88;4996598;28;20204;-83
2021/12/04 08:19:58;;;;;;;3.20;2.90;;;;;;;1.57;100.00;93773.59;4996418;28;20190;-82
2021/12/04 08:22:24;;;;;;;3.90;3.33;;;;;;;1.57;100.00;93763.38;4997143;28;20322;-81
2021/12/04 08:24:49;;;;;;;3.83;3.53;;;;;;;1.60;100.00;93766.47;4998216;28;20199;-82
2021/12/04 08:27:16;;;;;;;5.83;3.90;;;;;;;1.70;100.00;93762.16;4998385;28;20176;-82
2021/12/04 08:29:41;;;;;;;5.37;4.20;;;;;;;1.64;100.00;93767.00;4997122;28;20179;-82
2021/12/04 08:32:07;;;;;;;5.43;4.87;;;;;;;1.62;100.00;93758.66;4994914;28;20206;-80
2021/12/04 08:34:33;;;;;;;5.27;4.77;;;;;;;1.76;100.00;93759.97;4996693;28;20227;-81
2021/12/04 08:36:59;;;;;;;4.93;4.53;;;;;;;1.73;100.00;93765.38;4995898;28;20204;-79
2021/12/04 08:39:24;;;;;;;7.20;5.00;;;;;;;1.70;100.00;93764.72;4979458;28;20267;-80
2021/12/04 08:41:49;;;;;;;4.83;4.33;;;;;;;1.81;100.00;93762.94;4995384;28;20250;-81
2021/12/04 08:44:16;;;;;;;5.50;4.90;;;;;;;1.69;100.00;93757.97;4996222;28;20565;-80
2021/12/04 08:46:41;;;;;;;7.77;5.10;;;;;;;1.74;100.00;93767.78;4996414;28;20663;-81
2021/12/04 08:49:07;;;;;;;5.20;4.43;;;;;;;1.87;100.00;93772.63;4995369;28;20179;-81
2021/12/04 08:51:34;;;;;;;4.90;3.47;;;;;;;1.92;100.00;93763.56;4982079;28;20180;-81
2021/12/04 08:54:00;;;;;;;3.77;3.47;;;;;;;1.97;100.00;93770.84;4999534;28;20203;-81
2021/12/04 08:56:25;;;;;;;3.80;3.43;;;;;;;2.04;100.00;93768.53;4997380;28;20275;-79
2021/12/04 08:58:51;;;;;;;3.37;3.07;;;;;;;2.18;100.00;93756.06;4995155;28;20608;-79
2021/12/04 09:01:24;;;;;;;3.23;2.93;;;;;;;2.21;100.00;93762.69;4995226;28;20641;-80
2021/12/04 09:04:01;;;;;;;3.60;3.30;;;;;;;2.34;100.00;93762.34;4982205;28;20254;-82
2021/12/04 09:06:27;;;;;;;3.07;2.40;;;;;;;2.27;100.00;93755.22;4997436;28;20175;-81
2021/12/04 09:08:52;;;;;;;4.07;3.30;;;;;;;2.39;100.00;93758.44;4981393;28;20706;-82
2021/12/04 09:11:22;;;;;;;3.30;2.80;;;;;;;2.50;100.00;93754.88;4993861;28;20270;-79
2021/12/04 09:13:48;;;;;;;3.27;2.97;;;;;;;2.48;100.00;93749.91;4993490;28;20721;-79
2021/12/04 09:16:15;;;;;;;3.77;3.20;;;;;;;2.51;100.00;93751.34;4995994;28;20196;-79
2021/12/04 09:18:40;;;;;;;3.80;2.70;;;;;;;2.51;100.00;93748.78;4995678;28;20640;-79
2021/12/04 09:21:05;;;;;;;4.07;3.57;;;;;;;2.57;100.00;93753.34;4991668;28;20222;-78
2021/12/04 09:23:36;;;;;;;4.37;3.37;;;;;;;2.60;100.00;93760.75;4991495;28;20203;-80
2021/12/04 09:26:03;;;;;;;3.90;3.23;;;;;;;2.55;100.00;93760.34;4976246;28;20175;-80
2021/12/04 09:31:56;;;;;;;2.50;2.20;;;;;;;2.66;100.00;93759.38;4938937;29;20273;-79
2021/12/04 10:23:47;;;;;;;6.13;4.93;;;;;;;3.48;100.00;93687.34;4998048;28;20204;-83
2021/12/04 10:34:43;;;;;;;9.70;6.33;;;;;;;3.50;100.00;93672.59;4998740;28;20208;-82
2021/12/04 10:37:12;;;;;;;7.00;5.13;;;;;;;3.65;100.00;93673.66;4998839;28;20213;-81
2021/12/04 10:39:39;;;;;;;7.97;5.07;;;;;;;3.72;100.00;93662.81;4998318;28;20200;-81
2021/12/04 10:42:13;;;;;;;6.40;4.87;;;;;;;3.79;100.00;93661.22;5009543;28;20188;-82
2021/12/04 10:44:41;;;;;;;6.17;4.90;;;;;;;3.90;100.00;93653.25;4998083;28;20535;-82
2021/12/04 10:47:12;;;;;;;5.27;4.77;;;;;;;3.80;100.00;93644.84;4988899;28;20181;-82
2021/12/04 10:50:03;;;;;;;6.37;5.10;;;;;;;3.81;100.00;93644.72;4998013;28;20640;-83
2021/12/04 10:55:43;;;;;;;5.43;4.60;;;;;;;4.09;100.00;93642.75;5000217;28;20213;-85
2021/12/04 11:00:52;;;;;;;6.67;5.57;;;;;;;4.19;100.00;93627.22;5000303;28;20176;-82
2021/12/04 11:27:46;;;;;;;5.00;4.30;;;;;;;4.50;100.00;93604.31;5008115;28;20189;-78
2021/12/04 11:41:25;;;;;;;6.13;4.67;;;;;;;4.52;100.00;93586.97;5006766;28;20205;-81
2021/12/04 11:44:11;;;;;;;4.83;4.30;;;;;;;4.56;100.00;93588.25;4992973;28;20548;-82
2021/12/04 11:46:44;;;;;;;4.20;3.80;;;;;;;4.57;100.00;93579.56;4980021;28;20188;-82
2021/12/04 11:49:18;;;;;;;7.00;5.40;;;;;;;4.73;100.00;93574.44;4999635;28;20237;-81
2021/12/04 11:51:48;;;;;;;5.87;5.23;;;;;;;4.68;100.00;93575.88;4983072;28;20176;-79
2021/12/04 11:54:13;;;;;;;6.17;5.40;;;;;;;4.74;100.00;93570.91;5011681;28;20192;-82
2021/12/04 12:01:06;;;;;;;;;;;;;;;;;;;;;
2021/12/04 12:11:26;;;;;;;3.67;3.37;;;;;;;4.87;100.00;93549.06;4915698;29;20684;-84
2021/12/04 12:14:08;;;;;;;4.30;3.90;;;;;;;4.91;100.00;93534.91;4920740;29;20221;-82
2021/12/04 12:16:38;;;;;;;8.67;7.77;;;;;;;4.96;100.00;93533.47;4905876;29;20221;-83
2021/12/04 12:19:39;;;;;;;;;;;;;;;;;;;;;
2021/12/04 12:22:57;;;;;;;8.00;4.43;;;;;;;5.15;100.00;93532.31;4918809;29;20299;-83
2021/12/04 12:25:51;;;;;;;7.73;6.73;;;;;;;5.17;100.00;93532.16;4920343;29;20213;-83
2021/12/04 12:37:19;;;;;;;3.40;3.10;;;;;;;5.43;100.00;93511.34;4904814;29;20221;-81
2021/12/04 12:40:03;;;;;;;3.30;3.00;;;;;;;5.57;100.00;93508.06;4953227;29;20192;-83
2021/12/04 12:42:36;;;;;;;2.80;2.60;;;;;;;5.65;100.00;93497.72;4953103;29;20712;-81
2021/12/04 12:45:27;;;;;;;1.50;1.40;;;;;;;5.75;100.00;93493.19;4952513;29;20195;-82
2021/12/04 12:48:10;;;;;;;2.47;2.27;;;;;;;5.71;100.00;93493.69;4937913;28;20708;-82
2021/12/04 12:50:54;;;;;;;2.80;2.53;;;;;;;5.73;100.00;93499.47;4930981;29;20271;-81
2021/12/04 12:53:25;;;;;;;2.10;2.00;;;;;;;5.81;100.00;93507.94;4960713;29;20764;-80
2021/12/04 12:55:53;;;;;;;2.40;1.70;;;;;;;5.76;100.00;93505.09;4957331;29;20189;-81
2021/12/04 12:58:22;;;;;;;2.20;1.93;;;;;;;5.77;100.00;93506.69;4957085;29;20284;-81
2021/12/04 13:12:13;;;;;;;1.27;1.17;;;;;;;5.96;100.00;93510.66;4996009;28;20257;-81
2021/12/04 13:14:41;;;;;;;0.50;0.50;;;;;;;6.03;100.00;93501.28;5001609;28;20703;-80
2021/12/04 13:17:11;;;;;;;0.60;0.60;;;;;;;6.09;100.00;93515.25;5000949;28;21011;-81
2021/12/04 13:19:40;;;;;;;1.00;1.00;;;;;;;6.09;100.00;93504.94;5001707;28;20861;-82
2021/12/04 13:22:12;;;;;;;0.50;0.50;;;;;;;6.14;100.00;93500.09;4999820;28;20180;-80
2021/12/04 13:24:40;;;;;;;1.33;0.53;;;;;;;6.17;100.00;93504.88;4999969;28;20196;-81
2021/12/04 13:29:46;;;;;;;0.50;0.50;;;;;;;6.14;100.00;93494.94;5001363;28;20183;-79
2021/12/04 13:32:13;;;;;;;0.70;0.70;;;;;;;6.17;100.00;93503.09;4999824;28;20175;-80
2021/12/04 13:34:40;;;;;;;1.13;0.80;;;;;;;6.16;100.00;93505.88;4983971;28;20196;-79
2021/12/04 13:37:08;;;;;;;0.50;0.50;;;;;;;6.14;100.00;93502.66;4998834;28;20235;-80
2021/12/04 13:39:35;;;;;;;0.50;0.50;;;;;;;6.13;100.00;93506.22;4997735;28;20203;-80
2021/12/04 13:42:02;;;;;;;1.87;1.43;;;;;;;6.10;100.00;93507.38;4980818;28;20226;-80
2021/12/04 13:44:29;;;;;;;1.80;0.80;;;;;;;6.11;100.00;93505.59;4998651;28;20257;-80
2021/12/04 13:46:59;;;;;;;0.90;0.90;;;;;;;6.12;100.00;93514.91;5003123;28;20239;-80
2021/12/04 13:49:35;;;;;;;0.93;0.70;;;;;;;6.10;100.00;93511.72;4986990;28;20191;-80
2021/12/04 13:52:06;;;;;;;0.50;0.50;;;;;;;6.08;100.00;93519.59;4982567;28;20271;-81
2021/12/04 13:54:33;;;;;;;0.50;0.50;;;;;;;6.05;100.00;93525.09;4999783;28;20229;-81
2021/12/04 13:56:58;;;;;;;0.93;0.87;;;;;;;6.15;100.00;93527.47;4999204;28;20191;-79
2021/12/04 13:59:25;;;;;;;0.50;0.37;;;;;;;6.27;100.00;93517.56;4984349;28;20184;-80
2021/12/04 14:01:52;;;;;;;0.30;0.30;;;;;;;6.28;100.00;93519.19;5368023;23;20254;-79
2021/12/04 14:04:19;;;;;;;0.50;0.50;;;;;;;6.22;100.00;93515.50;5020276;28;20191;-79
2021/12/04 14:06:56;;;;;;;0.50;0.50;;;;;;;6.22;100.00;93507.78;5011386;28;20192;-81
2021/12/04 14:09:24;;;;;;;0.97;0.60;;;;;;;6.20;100.00;93510.53;5003094;28;20246;-81
2021/12/04 14:11:51;;;;;;;2.27;0.97;;;;;;;6.24;100.00;93513.53;4986504;28;20184;-80
2021/12/04 14:14:23;;;;;;;0.67;0.67;;;;;;;6.20;100.00;93514.88;5004511;28;20659;-82
2021/12/04 14:16:51;;;;;;;0.60;0.60;;;;;;;6.21;100.00;93519.84;5003103;28;20200;-82
2021/12/04 14:19:27;;;;;;;1.10;1.00;;;;;;;6.14;100.00;93520.69;5001276;28;20207;-81
2021/12/04 14:21:57;;;;;;;0.60;0.60;;;;;;;6.08;100.00;93521.38;4997898;28;20183;-81
2021/12/04 14:24:29;;;;;;;2.10;1.60;;;;;;;6.04;100.00;93533.00;4999031;28;20215;-82
2021/12/04 14:26:56;;;;;;;2.50;0.70;;;;;;;6.03;100.00;93532.19;4981208;28;20183;-81
2021/12/04 14:29:21;;;;;;;0.40;0.40;;;;;;;6.07;100.00;93536.03;5013945;28;20230;-82
2021/12/04 14:31:48;;;;;;;1.00;0.63;;;;;;;6.12;100.00;93530.38;4996800;28;20187;-81
2021/12/04 14:34:24;;;;;;;2.37;2.00;;;;;;;6.05;100.00;93542.34;5013372;28;20200;-81
2021/12/04 14:37:09;;;;;;;1.20;1.10;;;;;;;6.04;100.00;93553.63;4980991;28;20290;-81
2021/12/04 14:39:34;;;;;;;4.57;3.97;;;;;;;5.97;100.00;93554.28;5012875;28;20180;-81
2021/12/04 14:42:09;;;;;;;5.97;3.67;;;;;;;5.95;100.00;93560.56;4996030;28;20180;-80
2021/12/04 14:44:35;;;;;;;3.70;3.20;;;;;;;5.89;100.00;93556.06;4995961;28;20202;-81
2021/12/04 14:47:04;;;;;;;2.17;1.90;;;;;;;5.89;100.00;93554.28;5011959;28;20184;-80
2021/12/04 14:49:29;;;;;;;2.30;1.90;;;;;;;5.99;100.00;93566.19;4995559;28;20303;-81
2021/12/04 14:51:55;;;;;;;1.20;1.10;;;;;;;5.99;100.00;93564.41;4994948;28;20207;-80
2021/12/04 14:54:27;;;;;;;0.97;0.70;;;;;;;6.03;100.00;93559.75;4995512;28;20211;-80
2021/12/04 14:56:52;;;;;;;1.50;1.40;;;;;;;6.02;100.00;93576.19;4995292;28;20192;-80